sensor_id;sensor_type;location;lat;lon;timestamp;P1;durP1;ratioP1;P2;durP2;ratioP2
74328;SDS011;62745;51.060;13.786;2023-03-01T00:01:15;19.63;;;8.88;;
74328;SDS011;62745;51.060;13.786;2023-03-01T00:03:43;17.17;;;8.45;;
74328;SDS011;62745;51.060;13.786;2023-03-01T00:06:09;20.52;;;9.07;;
74328;SDS011;62745;51.060;13.786;2023-03-01T00:08:35;18.88;;;10.00;;
74328;SDS011;62745;51.060;13.786;2023-03-01T00:11:08;16.42;;;8.68;;
74328;SDS011;62745;51.060;13.786;2023-03-01T00:13:37;17.25;;;8.88;;
74328;SDS011;62745;51.060;13.786;2023-03-01T00:16:03;17.73;;;9.05;;
74328;SDS011;62745;51.060;13.786;2023-03-01T00:18:33;18.00;;;9.32;;
74328;SDS011;62745;51.060;13.786;2023-03-01T00:20:59;19.37;;;9.03;;
74328;SDS011;62745;51.060;13.786;2023-03-01T00:23:25;17.58;;;9.63;;
74328;SDS011;62745;51.060;13.786;2023-03-01T00:25:51;16.02;;;7.85;;
74328;SDS011;62745;51.060;13.786;2023-03-01T00:28:17;19.23;;;10.00;;
74328;SDS011;62745;51.060;13.786;2023-03-01T00:30:43;21.05;;;9.48;;
74328;SDS011;62745;51.060;13.786;2023-03-01T00:33:09;19.55;;;9.50;;
74328;SDS011;62745;51.060;13.786;2023-03-01T00:35:34;19.17;;;9.27;;
74328;SDS011;62745;51.060;13.786;2023-03-01T00:38:00;21.88;;;10.38;;
74328;SDS011;62745;51.060;13.786;2023-03-01T00:40:26;19.77;;;9.90;;
74328;SDS011;62745;51.060;13.786;2023-03-01T00:42:52;17.13;;;8.82;;
74328;SDS011;62745;51.060;13.786;2023-03-01T00:45:17;19.03;;;9.47;;
74328;SDS011;62745;51.060;13.786;2023-03-01T00:47:43;19.23;;;9.70;;
74328;SDS011;62745;51.060;13.786;2023-03-01T00:50:08;20.55;;;9.85;;
74328;SDS011;62745;51.060;13.786;2023-03-01T00:52:34;23.17;;;10.50;;
74328;SDS011;62745;51.060;13.786;2023-03-01T00:55:00;26.47;;;11.10;;
74328;SDS011;62745;51.060;13.786;2023-03-01T00:57:25;20.08;;;9.98;;
74328;SDS011;62745;51.060;13.786;2023-03-01T00:59:51;20.88;;;10.27;;
74328;SDS011;62745;51.060;13.786;2023-03-01T01:02:19;16.98;;;8.10;;
74328;SDS011;62745;51.060;13.786;2023-03-01T01:04:45;20.98;;;9.70;;
74328;SDS011;62745;51.060;13.786;2023-03-01T01:07:11;16.05;;;8.27;;
74328;SDS011;62745;51.060;13.786;2023-03-01T01:09:37;18.08;;;8.68;;
74328;SDS011;62745;51.060;13.786;2023-03-01T01:12:02;18.42;;;9.10;;
74328;SDS011;62745;51.060;13.786;2023-03-01T01:14:28;19.50;;;8.32;;
74328;SDS011;62745;51.060;13.786;2023-03-01T01:16:54;19.00;;;9.52;;
74328;SDS011;62745;51.060;13.786;2023-03-01T01:19:20;17.00;;;8.55;;
74328;SDS011;62745;51.060;13.786;2023-03-01T01:21:45;20.58;;;9.50;;
74328;SDS011;62745;51.060;13.786;2023-03-01T01:24:11;17.90;;;8.88;;
74328;SDS011;62745;51.060;13.786;2023-03-01T01:26:37;18.00;;;10.10;;
74328;SDS011;62745;51.060;13.786;2023-03-01T01:29:03;21.90;;;10.63;;
74328;SDS011;62745;51.060;13.786;2023-03-01T01:31:29;21.58;;;10.60;;
74328;SDS011;62745;51.060;13.786;2023-03-01T01:33:55;20.63;;;9.48;;
74328;SDS011;62745;51.060;13.786;2023-03-01T01:36:21;22.00;;;10.07;;
74328;SDS011;62745;51.060;13.786;2023-03-01T01:38:47;17.73;;;9.45;;
74328;SDS011;62745;51.060;13.786;2023-03-01T01:41:13;18.75;;;9.50;;
74328;SDS011;62745;51.060;13.786;2023-03-01T01:43:43;18.13;;;9.07;;
74328;SDS011;62745;51.060;13.786;2023-03-01T01:46:30;17.77;;;8.73;;
74328;SDS011;62745;51.060;13.786;2023-03-01T01:49:10;24.48;;;9.73;;
74328;SDS011;62745;51.060;13.786;2023-03-01T01:51:43;21.17;;;10.23;;
74328;SDS011;62745;51.060;13.786;2023-03-01T01:54:14;17.00;;;9.15;;
74328;SDS011;62745;51.060;13.786;2023-03-01T01:56:47;21.38;;;11.02;;
74328;SDS011;62745;51.060;13.786;2023-03-01T01:59:19;18.00;;;9.00;;
74328;SDS011;62745;51.060;13.786;2023-03-01T02:01:49;19.55;;;9.55;;
74328;SDS011;62745;51.060;13.786;2023-03-01T02:04:14;20.20;;;10.00;;
74328;SDS011;62745;51.060;13.786;2023-03-01T02:06:41;17.77;;;8.98;;
74328;SDS011;62745;51.060;13.786;2023-03-01T02:09:15;19.95;;;9.90;;
74328;SDS011;62745;51.060;13.786;2023-03-01T02:11:43;20.08;;;9.38;;
74328;SDS011;62745;51.060;13.786;2023-03-01T02:14:09;20.15;;;9.20;;
74328;SDS011;62745;51.060;13.786;2023-03-01T02:16:35;17.15;;;9.48;;
74328;SDS011;62745;51.060;13.786;2023-03-01T02:19:00;18.05;;;9.85;;
74328;SDS011;62745;51.060;13.786;2023-03-01T02:21:45;16.73;;;9.02;;
74328;SDS011;62745;51.060;13.786;2023-03-01T02:27:10;17.95;;;8.18;;
74328;SDS011;62745;51.060;13.786;2023-03-01T02:29:36;17.63;;;9.18;;
74328;SDS011;62745;51.060;13.786;2023-03-01T02:32:02;22.88;;;10.90;;
74328;SDS011;62745;51.060;13.786;2023-03-01T02:34:29;20.55;;;11.55;;
74328;SDS011;62745;51.060;13.786;2023-03-01T02:36:59;21.75;;;10.43;;
74328;SDS011;62745;51.060;13.786;2023-03-01T02:39:27;19.60;;;8.82;;
74328;SDS011;62745;51.060;13.786;2023-03-01T02:41:57;22.60;;;9.95;;
74328;SDS011;62745;51.060;13.786;2023-03-01T02:44:23;25.27;;;11.40;;
74328;SDS011;62745;51.060;13.786;2023-03-01T02:46:51;19.23;;;9.68;;
74328;SDS011;62745;51.060;13.786;2023-03-01T02:49:29;20.52;;;10.07;;
74328;SDS011;62745;51.060;13.786;2023-03-01T02:54:44;21.58;;;9.70;;
74328;SDS011;62745;51.060;13.786;2023-03-01T02:57:13;19.98;;;10.07;;
74328;SDS011;62745;51.060;13.786;2023-03-01T02:59:39;22.60;;;11.18;;
74328;SDS011;62745;51.060;13.786;2023-03-01T03:02:07;18.30;;;10.18;;
74328;SDS011;62745;51.060;13.786;2023-03-01T03:04:45;21.83;;;9.93;;
74328;SDS011;62745;51.060;13.786;2023-03-01T03:07:10;19.10;;;9.50;;
74328;SDS011;62745;51.060;13.786;2023-03-01T03:09:36;18.57;;;9.00;;
74328;SDS011;62745;51.060;13.786;2023-03-01T03:12:01;19.77;;;9.93;;
74328;SDS011;62745;51.060;13.786;2023-03-01T03:14:26;22.17;;;10.13;;
74328;SDS011;62745;51.060;13.786;2023-03-01T03:16:51;20.60;;;9.55;;
74328;SDS011;62745;51.060;13.786;2023-03-01T03:19:17;22.07;;;10.43;;
74328;SDS011;62745;51.060;13.786;2023-03-01T03:21:43;18.35;;;10.10;;
74328;SDS011;62745;51.060;13.786;2023-03-01T03:24:09;18.58;;;9.23;;
74328;SDS011;62745;51.060;13.786;2023-03-01T03:26:34;24.63;;;10.07;;
74328;SDS011;62745;51.060;13.786;2023-03-01T03:29:00;18.80;;;10.13;;
74328;SDS011;62745;51.060;13.786;2023-03-01T03:31:26;21.25;;;10.50;;
74328;SDS011;62745;51.060;13.786;2023-03-01T03:33:51;19.77;;;10.83;;
74328;SDS011;62745;51.060;13.786;2023-03-01T03:36:17;18.60;;;10.20;;
74328;SDS011;62745;51.060;13.786;2023-03-01T03:38:47;17.60;;;9.15;;
74328;SDS011;62745;51.060;13.786;2023-03-01T03:41:13;23.00;;;10.18;;
74328;SDS011;62745;51.060;13.786;2023-03-01T03:43:39;22.55;;;9.27;;
74328;SDS011;62745;51.060;13.786;2023-03-01T03:46:07;18.90;;;9.93;;
74328;SDS011;62745;51.060;13.786;2023-03-01T03:51:34;21.20;;;10.35;;
74328;SDS011;62745;51.060;13.786;2023-03-01T03:54:00;21.47;;;10.57;;
74328;SDS011;62745;51.060;13.786;2023-03-01T03:56:25;21.37;;;10.97;;
74328;SDS011;62745;51.060;13.786;2023-03-01T03:58:50;17.30;;;8.95;;
74328;SDS011;62745;51.060;13.786;2023-03-01T04:01:16;20.73;;;10.23;;
74328;SDS011;62745;51.060;13.786;2023-03-01T04:03:41;18.83;;;9.63;;
74328;SDS011;62745;51.060;13.786;2023-03-01T04:06:11;21.02;;;10.30;;
74328;SDS011;62745;51.060;13.786;2023-03-01T04:08:37;27.80;;;10.48;;
74328;SDS011;62745;51.060;13.786;2023-03-01T04:11:03;25.03;;;11.07;;
74328;SDS011;62745;51.060;13.786;2023-03-01T04:13:49;21.20;;;9.45;;
74328;SDS011;62745;51.060;13.786;2023-03-01T04:16:16;23.27;;;10.55;;
74328;SDS011;62745;51.060;13.786;2023-03-01T04:18:42;22.60;;;11.35;;
74328;SDS011;62745;51.060;13.786;2023-03-01T04:21:08;23.75;;;10.95;;
74328;SDS011;62745;51.060;13.786;2023-03-01T04:23:36;20.25;;;10.52;;
74328;SDS011;62745;51.060;13.786;2023-03-01T04:26:02;19.13;;;9.10;;
74328;SDS011;62745;51.060;13.786;2023-03-01T04:28:29;21.48;;;10.88;;
74328;SDS011;62745;51.060;13.786;2023-03-01T04:31:01;26.40;;;12.43;;
74328;SDS011;62745;51.060;13.786;2023-03-01T04:33:38;22.67;;;11.77;;
74328;SDS011;62745;51.060;13.786;2023-03-01T04:36:22;21.73;;;9.93;;
74328;SDS011;62745;51.060;13.786;2023-03-01T04:38:49;20.25;;;9.90;;
74328;SDS011;62745;51.060;13.786;2023-03-01T04:41:16;22.40;;;9.20;;
74328;SDS011;62745;51.060;13.786;2023-03-01T04:43:43;21.70;;;11.55;;
74328;SDS011;62745;51.060;13.786;2023-03-01T04:46:10;19.05;;;9.88;;
74328;SDS011;62745;51.060;13.786;2023-03-01T04:48:37;22.05;;;9.77;;
74328;SDS011;62745;51.060;13.786;2023-03-01T04:51:04;26.23;;;11.52;;
74328;SDS011;62745;51.060;13.786;2023-03-01T04:53:30;23.58;;;10.85;;
74328;SDS011;62745;51.060;13.786;2023-03-01T04:55:57;23.25;;;11.60;;
74328;SDS011;62745;51.060;13.786;2023-03-01T04:58:23;20.58;;;10.25;;
74328;SDS011;62745;51.060;13.786;2023-03-01T05:00:49;22.30;;;11.57;;
74328;SDS011;62745;51.060;13.786;2023-03-01T05:03:14;26.88;;;11.25;;
74328;SDS011;62745;51.060;13.786;2023-03-01T05:05:43;27.40;;;11.52;;
74328;SDS011;62745;51.060;13.786;2023-03-01T05:08:10;23.27;;;11.10;;
74328;SDS011;62745;51.060;13.786;2023-03-01T05:10:42;19.95;;;10.13;;
74328;SDS011;62745;51.060;13.786;2023-03-01T05:13:11;22.77;;;9.85;;
74328;SDS011;62745;51.060;13.786;2023-03-01T05:15:45;24.77;;;11.65;;
74328;SDS011;62745;51.060;13.786;2023-03-01T05:18:18;22.40;;;11.18;;
74328;SDS011;62745;51.060;13.786;2023-03-01T05:20:44;22.27;;;11.60;;
74328;SDS011;62745;51.060;13.786;2023-03-01T05:23:09;24.80;;;9.57;;
74328;SDS011;62745;51.060;13.786;2023-03-01T05:25:35;26.10;;;12.40;;
74328;SDS011;62745;51.060;13.786;2023-03-01T05:28:04;27.30;;;12.60;;
74328;SDS011;62745;51.060;13.786;2023-03-01T05:30:33;24.75;;;10.25;;
74328;SDS011;62745;51.060;13.786;2023-03-01T05:32:59;23.42;;;10.88;;
74328;SDS011;62745;51.060;13.786;2023-03-01T05:35:25;20.88;;;10.18;;
74328;SDS011;62745;51.060;13.786;2023-03-01T05:37:51;25.63;;;11.50;;
74328;SDS011;62745;51.060;13.786;2023-03-01T05:40:18;21.63;;;11.48;;
74328;SDS011;62745;51.060;13.786;2023-03-01T05:42:46;21.33;;;10.63;;
74328;SDS011;62745;51.060;13.786;2023-03-01T05:45:15;20.92;;;10.98;;
74328;SDS011;62745;51.060;13.786;2023-03-01T05:47:42;23.73;;;10.13;;
74328;SDS011;62745;51.060;13.786;2023-03-01T05:50:13;21.90;;;11.07;;
74328;SDS011;62745;51.060;13.786;2023-03-01T05:52:39;19.02;;;10.05;;
74328;SDS011;62745;51.060;13.786;2023-03-01T05:55:04;21.92;;;10.85;;
74328;SDS011;62745;51.060;13.786;2023-03-01T05:57:32;20.42;;;9.98;;
74328;SDS011;62745;51.060;13.786;2023-03-01T05:59:57;19.95;;;10.85;;
74328;SDS011;62745;51.060;13.786;2023-03-01T06:02:23;24.60;;;10.60;;
74328;SDS011;62745;51.060;13.786;2023-03-01T06:04:48;20.75;;;9.93;;
74328;SDS011;62745;51.060;13.786;2023-03-01T06:07:14;21.43;;;9.50;;
74328;SDS011;62745;51.060;13.786;2023-03-01T06:09:39;21.90;;;11.13;;
74328;SDS011;62745;51.060;13.786;2023-03-01T06:12:04;18.80;;;9.97;;
74328;SDS011;62745;51.060;13.786;2023-03-01T06:14:30;27.48;;;11.55;;
74328;SDS011;62745;51.060;13.786;2023-03-01T06:16:55;23.23;;;10.03;;
74328;SDS011;62745;51.060;13.786;2023-03-01T06:19:20;19.43;;;10.80;;
74328;SDS011;62745;51.060;13.786;2023-03-01T06:21:45;22.47;;;10.17;;
74328;SDS011;62745;51.060;13.786;2023-03-01T06:24:11;20.50;;;11.32;;
74328;SDS011;62745;51.060;13.786;2023-03-01T06:26:36;19.80;;;9.67;;
74328;SDS011;62745;51.060;13.786;2023-03-01T06:29:02;19.63;;;10.18;;
74328;SDS011;62745;51.060;13.786;2023-03-01T06:31:27;19.00;;;8.50;;
74328;SDS011;62745;51.060;13.786;2023-03-01T06:33:52;18.65;;;9.35;;
74328;SDS011;62745;51.060;13.786;2023-03-01T06:36:17;20.80;;;10.10;;
74328;SDS011;62745;51.060;13.786;2023-03-01T06:38:45;22.52;;;10.30;;
74328;SDS011;62745;51.060;13.786;2023-03-01T06:41:11;18.92;;;10.13;;
74328;SDS011;62745;51.060;13.786;2023-03-01T06:43:36;21.90;;;10.67;;
74328;SDS011;62745;51.060;13.786;2023-03-01T06:46:05;17.97;;;9.40;;
74328;SDS011;62745;51.060;13.786;2023-03-01T06:48:32;19.55;;;9.65;;
74328;SDS011;62745;51.060;13.786;2023-03-01T06:50:58;19.92;;;10.13;;
74328;SDS011;62745;51.060;13.786;2023-03-01T06:53:25;18.83;;;9.68;;
74328;SDS011;62745;51.060;13.786;2023-03-01T06:55:55;18.02;;;9.90;;
74328;SDS011;62745;51.060;13.786;2023-03-01T06:58:21;22.65;;;9.85;;
74328;SDS011;62745;51.060;13.786;2023-03-01T07:00:46;23.47;;;11.23;;
74328;SDS011;62745;51.060;13.786;2023-03-01T07:03:11;21.50;;;10.90;;
74328;SDS011;62745;51.060;13.786;2023-03-01T07:05:37;20.87;;;10.30;;
74328;SDS011;62745;51.060;13.786;2023-03-01T07:08:02;20.80;;;10.40;;
74328;SDS011;62745;51.060;13.786;2023-03-01T07:10:27;25.57;;;11.77;;
74328;SDS011;62745;51.060;13.786;2023-03-01T07:12:56;22.55;;;11.65;;
74328;SDS011;62745;51.060;13.786;2023-03-01T07:15:22;27.40;;;12.77;;
74328;SDS011;62745;51.060;13.786;2023-03-01T07:17:47;24.90;;;11.17;;
74328;SDS011;62745;51.060;13.786;2023-03-01T07:20:14;23.95;;;10.45;;
74328;SDS011;62745;51.060;13.786;2023-03-01T07:22:40;23.63;;;11.02;;
74328;SDS011;62745;51.060;13.786;2023-03-01T07:25:07;22.75;;;11.38;;
74328;SDS011;62745;51.060;13.786;2023-03-01T07:27:32;23.27;;;10.75;;
74328;SDS011;62745;51.060;13.786;2023-03-01T07:29:57;21.90;;;11.30;;
74328;SDS011;62745;51.060;13.786;2023-03-01T07:32:23;20.23;;;10.50;;
74328;SDS011;62745;51.060;13.786;2023-03-01T07:34:48;20.10;;;11.03;;
74328;SDS011;62745;51.060;13.786;2023-03-01T07:37:13;20.07;;;9.97;;
74328;SDS011;62745;51.060;13.786;2023-03-01T07:39:38;20.70;;;10.60;;
74328;SDS011;62745;51.060;13.786;2023-03-01T07:42:04;21.77;;;10.30;;
74328;SDS011;62745;51.060;13.786;2023-03-01T07:44:29;20.73;;;10.27;;
74328;SDS011;62745;51.060;13.786;2023-03-01T07:46:54;22.70;;;10.70;;
74328;SDS011;62745;51.060;13.786;2023-03-01T07:49:21;20.70;;;9.65;;
74328;SDS011;62745;51.060;13.786;2023-03-01T07:51:47;21.83;;;10.13;;
74328;SDS011;62745;51.060;13.786;2023-03-01T07:54:12;19.47;;;10.47;;
74328;SDS011;62745;51.060;13.786;2023-03-01T07:56:37;20.63;;;10.13;;
74328;SDS011;62745;51.060;13.786;2023-03-01T07:59:02;24.27;;;10.17;;
74328;SDS011;62745;51.060;13.786;2023-03-01T08:01:28;27.27;;;10.97;;
74328;SDS011;62745;51.060;13.786;2023-03-01T08:03:53;20.17;;;11.07;;
74328;SDS011;62745;51.060;13.786;2023-03-01T08:06:18;20.67;;;10.67;;
74328;SDS011;62745;51.060;13.786;2023-03-01T08:08:44;22.93;;;10.53;;
74328;SDS011;62745;51.060;13.786;2023-03-01T08:11:10;26.98;;;10.77;;
74328;SDS011;62745;51.060;13.786;2023-03-01T08:13:38;22.30;;;10.93;;
74328;SDS011;62745;51.060;13.786;2023-03-01T08:16:04;24.25;;;10.70;;
74328;SDS011;62745;51.060;13.786;2023-03-01T08:18:35;19.88;;;11.32;;
74328;SDS011;62745;51.060;13.786;2023-03-01T08:21:01;22.33;;;11.63;;
74328;SDS011;62745;51.060;13.786;2023-03-01T08:23:29;21.65;;;11.32;;
74328;SDS011;62745;51.060;13.786;2023-03-01T08:25:55;25.63;;;12.25;;
74328;SDS011;62745;51.060;13.786;2023-03-01T08:28:28;20.02;;;10.45;;
74328;SDS011;62745;51.060;13.786;2023-03-01T08:30:53;21.53;;;11.07;;
74328;SDS011;62745;51.060;13.786;2023-03-01T08:33:18;25.23;;;11.63;;
74328;SDS011;62745;51.060;13.786;2023-03-01T08:35:44;29.87;;;15.73;;
74328;SDS011;62745;51.060;13.786;2023-03-01T08:38:09;27.70;;;13.27;;
74328;SDS011;62745;51.060;13.786;2023-03-01T08:40:34;28.67;;;12.17;;
74328;SDS011;62745;51.060;13.786;2023-03-01T08:43:00;25.07;;;11.80;;
74328;SDS011;62745;51.060;13.786;2023-03-01T08:45:25;23.07;;;12.53;;
74328;SDS011;62745;51.060;13.786;2023-03-01T08:47:52;25.30;;;12.63;;
74328;SDS011;62745;51.060;13.786;2023-03-01T08:50:18;24.48;;;12.00;;
74328;SDS011;62745;51.060;13.786;2023-03-01T08:52:43;24.13;;;12.25;;
74328;SDS011;62745;51.060;13.786;2023-03-01T08:55:08;24.63;;;13.17;;
74328;SDS011;62745;51.060;13.786;2023-03-01T08:57:34;28.75;;;12.80;;
74328;SDS011;62745;51.060;13.786;2023-03-01T08:59:59;23.07;;;12.03;;
74328;SDS011;62745;51.060;13.786;2023-03-01T09:02:24;21.13;;;10.97;;
74328;SDS011;62745;51.060;13.786;2023-03-01T09:04:50;24.10;;;12.53;;
74328;SDS011;62745;51.060;13.786;2023-03-01T09:07:15;21.42;;;12.48;;
74328;SDS011;62745;51.060;13.786;2023-03-01T09:09:41;22.53;;;12.20;;
74328;SDS011;62745;51.060;13.786;2023-03-01T09:12:06;21.73;;;12.17;;
74328;SDS011;62745;51.060;13.786;2023-03-01T09:14:31;26.52;;;13.65;;
74328;SDS011;62745;51.060;13.786;2023-03-01T09:16:57;23.60;;;12.20;;
74328;SDS011;62745;51.060;13.786;2023-03-01T09:19:22;24.75;;;13.32;;
74328;SDS011;62745;51.060;13.786;2023-03-01T09:21:48;25.42;;;13.13;;
74328;SDS011;62745;51.060;13.786;2023-03-01T09:24:21;25.33;;;12.30;;
74328;SDS011;62745;51.060;13.786;2023-03-01T09:26:47;24.00;;;12.25;;
74328;SDS011;62745;51.060;13.786;2023-03-01T09:29:13;20.88;;;12.98;;
74328;SDS011;62745;51.060;13.786;2023-03-01T09:31:40;22.73;;;12.75;;
74328;SDS011;62745;51.060;13.786;2023-03-01T09:34:06;21.45;;;12.40;;
74328;SDS011;62745;51.060;13.786;2023-03-01T09:36:32;23.98;;;12.90;;
74328;SDS011;62745;51.060;13.786;2023-03-01T09:38:58;26.45;;;12.80;;
74328;SDS011;62745;51.060;13.786;2023-03-01T09:47:03;26.70;;;12.88;;
74328;SDS011;62745;51.060;13.786;2023-03-01T09:49:30;28.42;;;13.77;;
74328;SDS011;62745;51.060;13.786;2023-03-01T09:51:59;27.77;;;14.15;;
74328;SDS011;62745;51.060;13.786;2023-03-01T09:54:37;26.25;;;14.45;;
74328;SDS011;62745;51.060;13.786;2023-03-01T09:57:14;25.03;;;13.73;;
74328;SDS011;62745;51.060;13.786;2023-03-01T10:05:31;26.20;;;13.40;;
74328;SDS011;62745;51.060;13.786;2023-03-01T10:10:34;22.48;;;12.25;;
74328;SDS011;62745;51.060;13.786;2023-03-01T10:13:38;25.30;;;13.45;;
74328;SDS011;62745;51.060;13.786;2023-03-01T10:15:57;25.55;;;13.10;;
74328;SDS011;62745;51.060;13.786;2023-03-01T10:21:15;20.60;;;11.27;;
74328;SDS011;62745;51.060;13.786;2023-03-01T10:23:43;20.33;;;11.60;;
74328;SDS011;62745;51.060;13.786;2023-03-01T10:31:24;20.48;;;10.63;;
74328;SDS011;62745;51.060;13.786;2023-03-01T10:34:07;24.73;;;11.85;;
74328;SDS011;62745;51.060;13.786;2023-03-01T10:36:35;22.83;;;12.40;;
74328;SDS011;62745;51.060;13.786;2023-03-01T10:39:03;22.50;;;12.32;;
74328;SDS011;62745;51.060;13.786;2023-03-01T10:41:44;20.48;;;10.15;;
74328;SDS011;62745;51.060;13.786;2023-03-01T10:47:03;19.23;;;11.60;;
74328;SDS011;62745;51.060;13.786;2023-03-01T10:49:29;21.00;;;10.60;;
74328;SDS011;62745;51.060;13.786;2023-03-01T10:51:54;22.88;;;11.75;;
74328;SDS011;62745;51.060;13.786;2023-03-01T10:54:29;19.90;;;11.00;;
74328;SDS011;62745;51.060;13.786;2023-03-01T10:56:57;20.88;;;11.25;;
74328;SDS011;62745;51.060;13.786;2023-03-01T10:59:27;19.70;;;10.32;;
74328;SDS011;62745;51.060;13.786;2023-03-01T11:02:18;17.02;;;10.27;;
74328;SDS011;62745;51.060;13.786;2023-03-01T11:05:02;18.88;;;10.25;;
74328;SDS011;62745;51.060;13.786;2023-03-01T11:07:51;20.60;;;9.40;;
74328;SDS011;62745;51.060;13.786;2023-03-01T11:10:25;20.00;;;10.40;;
74328;SDS011;62745;51.060;13.786;2023-03-01T11:12:53;17.02;;;9.48;;
74328;SDS011;62745;51.060;13.786;2023-03-01T11:15:38;19.67;;;9.52;;
74328;SDS011;62745;51.060;13.786;2023-03-01T11:18:03;18.67;;;9.43;;
74328;SDS011;62745;51.060;13.786;2023-03-01T11:20:29;16.87;;;9.63;;
74328;SDS011;62745;51.060;13.786;2023-03-01T11:22:59;15.10;;;9.05;;
74328;SDS011;62745;51.060;13.786;2023-03-01T11:25:29;16.50;;;10.13;;
74328;SDS011;62745;51.060;13.786;2023-03-01T11:28:00;16.60;;;9.60;;
74328;SDS011;62745;51.060;13.786;2023-03-01T11:30:33;18.50;;;9.52;;
74328;SDS011;62745;51.060;13.786;2023-03-01T11:33:17;15.15;;;8.27;;
74328;SDS011;62745;51.060;13.786;2023-03-01T11:36:35;18.67;;;9.15;;
74328;SDS011;62745;51.060;13.786;2023-03-01T11:38:53;17.42;;;9.13;;
74328;SDS011;62745;51.060;13.786;2023-03-01T11:41:20;16.27;;;8.80;;
74328;SDS011;62745;51.060;13.786;2023-03-01T11:43:50;14.90;;;8.63;;
74328;SDS011;62745;51.060;13.786;2023-03-01T11:49:04;15.02;;;7.88;;
74328;SDS011;62745;51.060;13.786;2023-03-01T11:51:38;14.55;;;7.70;;
74328;SDS011;62745;51.060;13.786;2023-03-01T12:03:17;18.30;;;8.07;;
74328;SDS011;62745;51.060;13.786;2023-03-01T12:05:52;14.43;;;7.50;;
74328;SDS011;62745;51.060;13.786;2023-03-01T12:11:32;16.17;;;8.13;;
74328;SDS011;62745;51.060;13.786;2023-03-01T12:20:10;16.83;;;9.52;;
74328;SDS011;62745;51.060;13.786;2023-03-01T12:25:22;17.15;;;9.40;;
74328;SDS011;62745;51.060;13.786;2023-03-01T12:30:54;19.75;;;9.80;;
74328;SDS011;62745;51.060;13.786;2023-03-01T12:33:40;17.83;;;9.27;;
74328;SDS011;62745;51.060;13.786;2023-03-01T12:42:16;20.77;;;9.68;;
74328;SDS011;62745;51.060;13.786;2023-03-01T12:48:08;20.40;;;10.43;;
74328;SDS011;62745;51.060;13.786;2023-03-01T12:50:48;18.63;;;9.80;;
74328;SDS011;62745;51.060;13.786;2023-03-01T12:53:28;19.92;;;11.77;;
74328;SDS011;62745;51.060;13.786;2023-03-01T12:56:10;18.85;;;11.55;;
74328;SDS011;62745;51.060;13.786;2023-03-01T12:58:52;17.92;;;11.50;;
74328;SDS011;62745;51.060;13.786;2023-03-01T13:04:19;21.13;;;10.75;;
74328;SDS011;62745;51.060;13.786;2023-03-01T13:10:00;19.58;;;11.18;;
74328;SDS011;62745;51.060;13.786;2023-03-01T13:17:58;16.55;;;10.15;;
74328;SDS011;62745;51.060;13.786;2023-03-01T13:36:25;17.48;;;10.93;;
74328;SDS011;62745;51.060;13.786;2023-03-01T13:39:26;16.70;;;9.73;;
74328;SDS011;62745;51.060;13.786;2023-03-01T13:41:56;18.88;;;11.93;;
74328;SDS011;62745;51.060;13.786;2023-03-01T13:44:37;18.25;;;9.88;;
74328;SDS011;62745;51.060;13.786;2023-03-01T13:50:15;20.70;;;10.63;;
74328;SDS011;62745;51.060;13.786;2023-03-01T13:52:38;18.15;;;10.82;;
74328;SDS011;62745;51.060;13.786;2023-03-01T13:57:38;19.03;;;12.03;;
74328;SDS011;62745;51.060;13.786;2023-03-01T14:00:04;19.45;;;10.07;;
74328;SDS011;62745;51.060;13.786;2023-03-01T14:02:31;20.42;;;11.30;;
74328;SDS011;62745;51.060;13.786;2023-03-01T14:04:57;16.92;;;10.07;;
74328;SDS011;62745;51.060;13.786;2023-03-01T14:07:24;18.65;;;11.75;;
74328;SDS011;62745;51.060;13.786;2023-03-01T14:09:56;19.67;;;11.60;;
74328;SDS011;62745;51.060;13.786;2023-03-01T14:15:22;16.05;;;10.65;;
74328;SDS011;62745;51.060;13.786;2023-03-01T14:17:58;19.52;;;11.40;;
74328;SDS011;62745;51.060;13.786;2023-03-01T14:20:33;19.80;;;11.48;;
74328;SDS011;62745;51.060;13.786;2023-03-01T14:23:12;20.73;;;10.38;;
74328;SDS011;62745;51.060;13.786;2023-03-01T14:25:46;23.77;;;10.30;;
74328;SDS011;62745;51.060;13.786;2023-03-01T14:30:52;19.15;;;11.07;;
74328;SDS011;62745;51.060;13.786;2023-03-01T14:33:26;17.67;;;9.90;;
74328;SDS011;62745;51.060;13.786;2023-03-01T14:38:33;18.90;;;10.73;;
74328;SDS011;62745;51.060;13.786;2023-03-01T14:41:01;18.15;;;9.88;;
74328;SDS011;62745;51.060;13.786;2023-03-01T14:43:29;22.17;;;10.82;;
74328;SDS011;62745;51.060;13.786;2023-03-01T14:45:55;18.23;;;9.77;;
74328;SDS011;62745;51.060;13.786;2023-03-01T14:48:21;19.77;;;11.05;;
74328;SDS011;62745;51.060;13.786;2023-03-01T14:50:47;17.00;;;9.98;;
74328;SDS011;62745;51.060;13.786;2023-03-01T14:53:34;19.17;;;10.70;;
74328;SDS011;62745;51.060;13.786;2023-03-01T14:55:59;18.25;;;9.48;;
74328;SDS011;62745;51.060;13.786;2023-03-01T14:58:29;18.35;;;11.45;;
74328;SDS011;62745;51.060;13.786;2023-03-01T15:00:59;17.05;;;9.02;;
74328;SDS011;62745;51.060;13.786;2023-03-01T15:03:29;17.27;;;9.35;;
74328;SDS011;62745;51.060;13.786;2023-03-01T15:05:59;18.67;;;9.50;;
74328;SDS011;62745;51.060;13.786;2023-03-01T15:08:27;17.08;;;9.40;;
74328;SDS011;62745;51.060;13.786;2023-03-01T15:10:59;16.38;;;9.27;;
74328;SDS011;62745;51.060;13.786;2023-03-01T15:13:41;16.73;;;9.15;;
74328;SDS011;62745;51.060;13.786;2023-03-01T15:16:09;17.75;;;9.55;;
74328;SDS011;62745;51.060;13.786;2023-03-01T15:18:46;15.90;;;9.13;;
74328;SDS011;62745;51.060;13.786;2023-03-01T15:21:19;15.88;;;8.88;;
74328;SDS011;62745;51.060;13.786;2023-03-01T15:23:49;20.23;;;8.77;;
74328;SDS011;62745;51.060;13.786;2023-03-01T15:26:24;15.85;;;8.50;;
74328;SDS011;62745;51.060;13.786;2023-03-01T15:31:23;15.10;;;8.90;;
74328;SDS011;62745;51.060;13.786;2023-03-01T15:33:50;16.70;;;9.70;;
74328;SDS011;62745;51.060;13.786;2023-03-01T15:36:30;16.63;;;8.52;;
74328;SDS011;62745;51.060;13.786;2023-03-01T15:38:58;16.67;;;9.40;;
74328;SDS011;62745;51.060;13.786;2023-03-01T15:41:58;14.50;;;9.25;;
74328;SDS011;62745;51.060;13.786;2023-03-01T15:44:26;16.48;;;9.75;;
74328;SDS011;62745;51.060;13.786;2023-03-01T15:46:56;16.63;;;9.35;;
74328;SDS011;62745;51.060;13.786;2023-03-01T15:52:13;15.10;;;8.40;;
74328;SDS011;62745;51.060;13.786;2023-03-01T15:54:46;13.60;;;8.25;;
74328;SDS011;62745;51.060;13.786;2023-03-01T15:57:12;18.13;;;8.57;;
74328;SDS011;62745;51.060;13.786;2023-03-01T15:59:39;17.33;;;9.38;;
74328;SDS011;62745;51.060;13.786;2023-03-01T16:02:08;15.10;;;8.60;;
74328;SDS011;62745;51.060;13.786;2023-03-01T16:04:37;15.85;;;9.13;;
74328;SDS011;62745;51.060;13.786;2023-03-01T16:07:02;15.13;;;8.77;;
74328;SDS011;62745;51.060;13.786;2023-03-01T16:09:27;16.23;;;7.97;;
74328;SDS011;62745;51.060;13.786;2023-03-01T16:11:53;17.50;;;9.77;;
74328;SDS011;62745;51.060;13.786;2023-03-01T16:14:19;16.42;;;8.35;;
74328;SDS011;62745;51.060;13.786;2023-03-01T16:16:45;16.90;;;9.68;;
74328;SDS011;62745;51.060;13.786;2023-03-01T16:19:11;16.60;;;8.55;;